createdAt,value
2018-01-14T00:00:58.503Z,1.80
2018-01-14T00:03:25.979Z,1.70
2018-01-14T00:05:53.470Z,1.80
2018-01-14T00:08:21.036Z,1.70
2018-01-14T00:10:48.502Z,1.70
2018-01-14T00:13:15.991Z,1.70
2018-01-14T00:15:43.466Z,1.70
2018-01-14T00:18:10.946Z,1.70
2018-01-14T00:20:39.392Z,1.60
2018-01-14T00:23:07.530Z,1.60
2018-01-14T00:25:35.076Z,1.70
2018-01-14T00:28:02.586Z,1.70
2018-01-14T00:30:30.181Z,1.70
2018-01-14T00:32:58.461Z,1.70
2018-01-14T00:35:26.753Z,1.70
2018-01-14T00:37:54.270Z,1.60
2018-01-14T00:40:23.266Z,1.60
2018-01-14T00:42:50.810Z,1.60
2018-01-14T00:45:18.243Z,1.60
2018-01-14T00:47:45.731Z,1.60
2018-01-14T00:50:13.218Z,1.60
2018-01-14T00:52:41.483Z,1.60
2018-01-14T00:55:09.721Z,1.60
2018-01-14T00:57:37.215Z,1.60
2018-01-14T01:00:05.465Z,1.60
2018-01-14T01:02:35.375Z,1.60
2018-01-14T01:05:02.967Z,1.60
2018-01-14T01:07:31.218Z,1.60
2018-01-14T01:09:58.806Z,1.60
2018-01-14T01:12:27.055Z,1.60
2018-01-14T01:14:54.530Z,1.60
2018-01-14T01:17:22.818Z,1.60
2018-01-14T01:19:51.104Z,1.60
2018-01-14T01:22:18.582Z,1.60
2018-01-14T01:24:46.378Z,1.60
2018-01-14T01:27:13.858Z,1.60
2018-01-14T01:29:42.102Z,1.60
2018-01-14T01:32:09.610Z,1.60
2018-01-14T01:34:37.866Z,1.60
2018-01-14T01:37:05.441Z,1.60
2018-01-14T01:39:33.721Z,1.60
2018-01-14T01:42:01.999Z,1.60
2018-01-14T01:44:30.245Z,1.60
2018-01-14T01:46:57.723Z,1.60
2018-01-14T01:49:25.208Z,1.60
2018-01-14T01:51:52.685Z,1.60
2018-01-14T01:54:20.163Z,1.60
2018-01-14T01:56:47.650Z,1.60
2018-01-14T01:59:15.895Z,1.60
2018-01-14T02:01:43.396Z,1.60
2018-01-14T02:04:11.674Z,1.60
2018-01-14T02:06:39.922Z,1.60
2018-01-14T02:09:07.398Z,1.60
2018-01-14T02:11:34.882Z,1.60
2018-01-14T02:14:03.143Z,1.60
2018-01-14T02:16:31.414Z,1.60
2018-01-14T02:18:58.912Z,1.60
2018-01-14T02:21:26.387Z,1.60
2018-01-14T02:23:53.894Z,1.70
2018-01-14T02:26:21.374Z,1.60
2018-01-14T02:28:48.842Z,1.70
2018-01-14T02:31:16.313Z,1.70
2018-01-14T02:33:43.805Z,1.60
2018-01-14T02:36:12.050Z,1.70
2018-01-14T02:38:39.525Z,1.60
2018-01-14T02:41:07.015Z,1.70
2018-01-14T02:43:34.489Z,1.70
2018-01-14T02:46:02.723Z,1.70
2018-01-14T02:48:30.217Z,1.70
2018-01-14T02:50:58.453Z,1.70
2018-01-14T02:53:25.939Z,1.70
2018-01-14T02:55:53.501Z,1.70
2018-01-14T02:58:22.128Z,1.70
2018-01-14T03:00:49.598Z,1.70
2018-01-14T03:03:17.106Z,1.70
2018-01-14T03:05:45.350Z,1.70
2018-01-14T03:08:12.842Z,1.70
2018-01-14T03:10:40.407Z,1.80
2018-01-14T03:13:08.646Z,1.70
2018-01-14T03:15:36.123Z,1.70
2018-01-14T03:18:03.610Z,1.80
2018-01-14T03:20:31.846Z,1.70
2018-01-14T03:22:59.318Z,1.70
2018-01-14T03:25:26.882Z,1.70
2018-01-14T03:27:54.362Z,1.70
2018-01-14T03:30:22.599Z,1.80
2018-01-14T03:32:50.086Z,1.80
2018-01-14T03:35:18.325Z,1.80
2018-01-14T03:37:45.800Z,1.80
2018-01-14T03:40:14.831Z,1.80
2018-01-14T03:42:42.309Z,1.80
2018-01-14T03:45:09.773Z,1.70
2018-01-14T03:47:37.269Z,1.80
2018-01-14T03:50:04.739Z,1.80
2018-01-14T03:52:32.973Z,1.80
2018-01-14T03:55:00.459Z,1.80
2018-01-14T03:57:28.750Z,1.80
2018-01-14T03:59:56.991Z,1.80
2018-01-14T04:02:24.479Z,1.80
2018-01-14T04:04:51.951Z,1.80
2018-01-14T04:07:20.190Z,1.90
2018-01-14T04:09:47.674Z,1.80
2018-01-14T04:12:15.150Z,1.80
2018-01-14T04:14:43.402Z,1.80
2018-01-14T04:17:10.974Z,1.80
2018-01-14T04:19:39.206Z,1.80
2018-01-14T04:22:06.706Z,1.80
2018-01-14T04:24:34.958Z,1.80
2018-01-14T04:27:03.974Z,1.80
2018-01-14T04:29:31.534Z,1.80
2018-01-14T04:31:59.010Z,1.80
2018-01-14T04:34:27.246Z,1.80
2018-01-14T04:36:55.537Z,1.80
2018-01-14T04:39:23.114Z,1.80
2018-01-14T04:41:51.349Z,1.80
2018-01-14T04:44:18.823Z,1.90
2018-01-14T04:46:46.619Z,1.90
2018-01-14T04:49:14.857Z,1.90
2018-01-14T04:51:42.425Z,1.90
2018-01-14T04:54:09.905Z,1.80
2018-01-14T04:56:38.151Z,1.80
2018-01-14T04:59:05.627Z,1.80
2018-01-14T05:01:33.107Z,1.80
2018-01-14T05:04:01.372Z,1.80
2018-01-14T05:06:29.643Z,1.80
2018-01-14T05:08:57.890Z,1.80
2018-01-14T05:11:25.379Z,1.80
2018-01-14T05:13:53.618Z,1.80
2018-01-14T05:16:21.098Z,1.80
2018-01-14T05:18:48.574Z,1.80
2018-01-14T05:21:16.806Z,1.90
2018-01-14T05:23:44.306Z,1.80
2018-01-14T05:26:12.538Z,1.90
2018-01-14T05:28:40.046Z,1.90
2018-01-14T05:31:08.298Z,1.90
2018-01-14T05:33:35.765Z,1.90
2018-01-14T05:36:03.243Z,1.90
2018-01-14T05:38:31.544Z,1.90
2018-01-14T05:40:59.014Z,1.90
2018-01-14T05:43:26.903Z,1.90
2018-01-14T05:45:54.373Z,1.90
2018-01-14T05:48:22.613Z,1.90
2018-01-14T05:50:50.083Z,1.90
2018-01-14T05:53:17.579Z,1.80
2018-01-14T05:55:45.147Z,1.90
2018-01-14T05:58:13.475Z,1.90
2018-01-14T06:00:40.959Z,1.90
2018-01-14T06:03:08.431Z,1.90
2018-01-14T06:05:35.892Z,1.90
2018-01-14T06:08:03.703Z,1.90
2018-01-14T06:10:31.171Z,1.90
2018-01-14T06:12:58.683Z,1.80
2018-01-14T06:15:26.930Z,1.80
2018-01-14T06:17:54.516Z,1.90
2018-01-14T06:20:22.758Z,1.90
2018-01-14T06:22:50.322Z,1.90
2018-01-14T06:25:17.797Z,1.90
2018-01-14T06:27:45.502Z,1.90
2018-01-14T06:30:13.030Z,1.90
2018-01-14T06:32:41.304Z,1.90
2018-01-14T06:35:08.858Z,1.90
2018-01-14T06:37:36.347Z,1.90
2018-01-14T06:40:03.920Z,1.90
2018-01-14T06:42:31.550Z,1.90
2018-01-14T06:44:59.818Z,1.90
2018-01-14T06:47:27.382Z,1.90
2018-01-14T06:49:55.662Z,1.90
2018-01-14T06:52:23.919Z,1.90
2018-01-14T06:54:51.393Z,1.90
2018-01-14T06:57:19.975Z,1.90
2018-01-14T06:59:47.543Z,1.90
2018-01-14T07:02:15.820Z,1.90
2018-01-14T07:04:44.067Z,1.90
2018-01-14T07:07:11.649Z,1.90
2018-01-14T07:09:39.117Z,1.90
2018-01-14T07:12:07.421Z,1.90
2018-01-14T07:14:34.907Z,1.90
2018-01-14T07:17:02.382Z,1.90
2018-01-14T07:19:29.971Z,1.90
2018-01-14T07:21:58.218Z,2.00
2018-01-14T07:24:25.702Z,2.00
2018-01-14T07:26:53.944Z,2.10
2018-01-14T07:29:21.427Z,2.10
2018-01-14T07:31:49.062Z,2.10
2018-01-14T07:34:16.546Z,2.10
2018-01-14T07:36:44.110Z,2.10
2018-01-14T07:39:11.682Z,2.10
2018-01-14T07:41:39.913Z,2.20
2018-01-14T07:44:07.490Z,2.10
2018-01-14T07:46:35.319Z,2.20
2018-01-14T07:49:02.782Z,2.20
2018-01-14T07:51:30.271Z,2.20
2018-01-14T07:53:57.879Z,2.20
2018-01-14T07:56:25.345Z,2.30
2018-01-14T07:58:52.835Z,2.30
2018-01-14T08:01:20.305Z,2.30
2018-01-14T08:03:47.891Z,2.30
2018-01-14T08:06:16.420Z,2.50
2018-01-14T08:08:43.890Z,2.50
2018-01-14T08:11:11.359Z,2.60
2018-01-14T08:13:38.937Z,2.70
2018-01-14T08:16:06.506Z,2.70
2018-01-14T08:18:34.740Z,2.90
2018-01-14T08:21:02.230Z,2.80
2018-01-14T08:23:29.720Z,2.90
2018-01-14T08:25:57.194Z,2.90
2018-01-14T08:28:24.682Z,2.80
2018-01-14T08:30:52.162Z,2.80
2018-01-14T08:33:19.630Z,2.80
2018-01-14T08:35:47.873Z,2.80
2018-01-14T08:38:15.362Z,2.80
2018-01-14T08:40:42.822Z,2.90
2018-01-14T08:43:11.097Z,2.80
2018-01-14T08:45:39.372Z,2.80
2018-01-14T08:48:07.609Z,2.80
2018-01-14T08:50:35.142Z,2.80
2018-01-14T08:53:02.617Z,2.80
2018-01-14T08:55:30.093Z,2.90
2018-01-14T08:57:57.583Z,2.90
2018-01-14T09:00:25.833Z,2.90
2018-01-14T09:02:53.343Z,2.90
2018-01-14T09:05:20.875Z,2.90
2018-01-14T09:07:49.143Z,2.90
2018-01-14T09:10:16.637Z,3.00
2018-01-14T09:12:44.144Z,3.00
2018-01-14T09:15:11.624Z,3.00
2018-01-14T09:17:39.094Z,3.10
2018-01-14T09:20:07.342Z,3.20
2018-01-14T09:22:35.140Z,3.20
2018-01-14T09:25:03.407Z,3.20
2018-01-14T09:27:31.683Z,3.20
2018-01-14T09:29:59.930Z,3.20
2018-01-14T09:32:27.408Z,3.30
2018-01-14T09:34:54.897Z,3.20
2018-01-14T09:37:22.378Z,3.20
2018-01-14T09:39:49.916Z,3.20
2018-01-14T09:42:17.402Z,3.20
2018-01-14T09:44:44.924Z,3.20
2018-01-14T09:47:12.474Z,3.20
2018-01-14T09:49:40.767Z,3.30
2018-01-14T09:52:08.268Z,3.30
2018-01-14T09:54:36.426Z,3.30
2018-01-14T09:57:03.927Z,3.30
2018-01-14T09:59:31.440Z,3.30
2018-01-14T10:01:58.937Z,3.40
2018-01-14T10:04:27.229Z,3.50
2018-01-14T10:06:55.501Z,3.50
2018-01-14T10:09:23.033Z,3.50
2018-01-14T10:11:50.565Z,3.60
2018-01-14T10:14:18.053Z,3.60
2018-01-14T10:16:45.579Z,3.60
2018-01-14T10:19:13.069Z,3.60
2018-01-14T10:21:40.583Z,3.70
2018-01-14T10:24:08.060Z,3.60
2018-01-14T10:26:35.575Z,3.60
2018-01-14T10:29:03.867Z,3.70
2018-01-14T10:31:32.111Z,3.70
2018-01-14T10:33:59.686Z,3.70
2018-01-14T10:36:28.010Z,3.80
2018-01-14T10:38:55.484Z,3.80
2018-01-14T10:41:22.978Z,3.80
2018-01-14T10:43:51.230Z,3.80
2018-01-14T10:46:18.812Z,3.80
2018-01-14T10:48:46.354Z,3.80
2018-01-14T10:51:13.824Z,3.90
2018-01-14T10:53:41.732Z,3.80
2018-01-14T10:56:09.223Z,3.90
2018-01-14T10:58:36.735Z,3.90
2018-01-14T11:01:05.043Z,4.00
2018-01-14T11:03:33.270Z,4.00
2018-01-14T11:06:01.361Z,4.00
2018-01-14T11:08:29.600Z,4.00
2018-01-14T11:10:57.191Z,3.90
2018-01-14T11:13:26.911Z,4.00
2018-01-14T11:15:55.559Z,4.00
2018-01-14T11:18:23.134Z,4.00
2018-01-14T11:20:50.611Z,4.00
2018-01-14T11:23:18.851Z,4.00
2018-01-14T11:25:46.329Z,4.00
2018-01-14T11:28:15.719Z,4.00
2018-01-14T11:30:43.199Z,3.90
2018-01-14T11:33:11.451Z,3.90
2018-01-14T11:35:38.931Z,3.80
2018-01-14T11:38:07.180Z,3.90
2018-01-14T11:40:34.668Z,3.90
2018-01-14T11:43:02.910Z,3.90
2018-01-14T11:45:30.394Z,3.90
2018-01-14T11:47:57.964Z,3.90
2018-01-14T11:50:26.202Z,3.80
2018-01-14T11:52:53.670Z,3.80
2018-01-14T11:55:21.258Z,3.80
2018-01-14T11:57:49.538Z,3.80
2018-01-14T12:00:17.806Z,3.90
2018-01-14T12:02:46.058Z,3.90
2018-01-14T12:05:13.543Z,3.90
2018-01-14T12:07:41.817Z,3.80
2018-01-14T12:10:10.093Z,3.80
2018-01-14T12:12:38.333Z,3.80
2018-01-14T12:15:05.807Z,3.80
2018-01-14T12:17:33.389Z,3.80
2018-01-14T12:20:01.631Z,3.80
2018-01-14T12:22:29.097Z,3.80
2018-01-14T12:24:56.675Z,3.80
2018-01-14T12:27:24.141Z,3.70
2018-01-14T12:29:52.382Z,3.60
2018-01-14T12:32:19.874Z,3.60
2018-01-14T12:34:53.895Z,3.60
2018-01-14T12:37:22.170Z,3.60
2018-01-14T12:39:50.418Z,3.60
2018-01-14T12:42:17.894Z,3.60
2018-01-14T12:44:46.170Z,3.60
2018-01-14T12:47:14.454Z,3.60
2018-01-14T12:49:42.698Z,3.60
2018-01-14T12:52:10.180Z,3.60
2018-01-14T12:54:38.576Z,3.70
2018-01-14T12:57:06.808Z,3.70
2018-01-14T12:59:34.307Z,3.70
2018-01-14T13:02:02.552Z,3.80
2018-01-14T13:04:30.795Z,3.80
2018-01-14T13:06:58.297Z,3.70
2018-01-14T13:09:25.785Z,3.70
2018-01-14T13:11:53.263Z,3.70
2018-01-14T13:14:20.783Z,3.70
2018-01-14T13:16:49.031Z,3.70
2018-01-14T13:19:16.509Z,3.70
2018-01-14T13:21:44.011Z,3.70
2018-01-14T13:24:11.501Z,3.70
2018-01-14T13:26:39.013Z,3.70
2018-01-14T13:29:06.498Z,3.70
2018-01-14T13:31:33.970Z,3.70
2018-01-14T13:34:01.724Z,3.60
2018-01-14T13:36:29.230Z,3.60
2018-01-14T13:38:57.482Z,3.70
2018-01-14T13:41:25.000Z,3.70
2018-01-14T13:43:52.504Z,3.70
2018-01-14T13:46:19.974Z,3.70
2018-01-14T13:48:47.460Z,3.70
2018-01-14T13:51:15.707Z,3.70
2018-01-14T13:53:43.224Z,3.70
2018-01-14T13:56:10.698Z,3.60
2018-01-14T13:58:38.190Z,3.60
2018-01-14T14:01:05.671Z,3.60
2018-01-14T14:03:33.154Z,3.60
2018-01-14T14:06:00.802Z,3.60
2018-01-14T14:08:29.033Z,3.60
2018-01-14T14:10:56.525Z,3.60
2018-01-14T14:13:24.009Z,3.60
2018-01-14T14:15:51.507Z,3.50
2018-01-14T14:18:18.977Z,3.50
2018-01-14T14:20:47.235Z,3.50
2018-01-14T14:23:14.709Z,3.50
2018-01-14T14:25:42.181Z,3.40
2018-01-14T14:28:10.436Z,3.40
2018-01-14T14:30:38.683Z,3.40
2018-01-14T14:33:06.191Z,3.40
2018-01-14T14:35:34.448Z,3.30
2018-01-14T14:38:02.537Z,3.30
2018-01-14T14:40:30.813Z,3.20
2018-01-14T14:42:58.370Z,3.20
2018-01-14T14:45:26.610Z,3.20
2018-01-14T14:47:54.098Z,3.20
2018-01-14T14:50:21.671Z,3.20
2018-01-14T14:52:49.950Z,3.10
2018-01-14T14:55:18.191Z,3.10
2018-01-14T14:57:45.690Z,3.10
2018-01-14T15:00:13.934Z,3.10
2018-01-14T15:02:41.410Z,3.10
2018-01-14T15:05:09.650Z,2.90
2018-01-14T15:07:37.132Z,2.90
2018-01-14T15:10:04.598Z,2.90
2018-01-14T15:12:32.854Z,2.80
2018-01-14T15:15:00.321Z,2.70
2018-01-14T15:17:27.795Z,2.70
2018-01-14T15:19:56.051Z,2.60
2018-01-14T15:22:23.531Z,2.50
2018-01-14T15:24:51.767Z,2.40
2018-01-14T15:27:19.275Z,2.40
2018-01-14T15:29:46.759Z,2.40
2018-01-14T15:32:15.005Z,2.30
2018-01-14T15:34:43.272Z,2.30
2018-01-14T15:37:11.539Z,2.30
2018-01-14T15:39:39.119Z,2.30
2018-01-14T15:42:07.427Z,2.20
2018-01-14T15:44:34.900Z,2.20
2018-01-14T15:47:02.417Z,2.20
2018-01-14T15:49:29.962Z,2.10
2018-01-14T15:51:58.367Z,2.20
2018-01-14T15:54:25.838Z,2.20
2018-01-14T15:56:53.328Z,2.20
2018-01-14T15:59:21.578Z,2.10
2018-01-14T16:01:49.094Z,2.10
2018-01-14T16:04:17.342Z,2.00
2018-01-14T16:06:44.818Z,2.00
2018-01-14T16:09:12.290Z,2.00
2018-01-14T16:11:39.876Z,1.90
2018-01-14T16:14:07.437Z,1.90
2018-01-14T16:16:34.960Z,1.90
2018-01-14T16:19:03.216Z,1.80
2018-01-14T16:21:30.703Z,1.80
2018-01-14T16:23:58.956Z,1.80
2018-01-14T16:26:26.613Z,1.80
2018-01-14T16:28:54.049Z,1.80
2018-01-14T16:31:21.541Z,1.80
2018-01-14T16:33:50.007Z,1.70
2018-01-14T16:36:17.523Z,1.70
2018-01-14T16:38:46.219Z,1.70
2018-01-14T16:41:13.739Z,1.70
2018-01-14T16:43:41.993Z,1.70
2018-01-14T16:46:09.473Z,1.70
2018-01-14T16:48:37.047Z,1.70
2018-01-14T16:51:04.515Z,1.70
2018-01-14T16:53:32.059Z,1.70
2018-01-14T16:56:00.317Z,1.70
2018-01-14T16:58:27.906Z,1.70
2018-01-14T17:00:56.131Z,1.70
2018-01-14T17:03:23.642Z,1.70
2018-01-14T17:05:51.890Z,1.70
2018-01-14T17:08:19.367Z,1.70
2018-01-14T17:10:46.870Z,1.70
2018-01-14T17:13:14.388Z,1.70
2018-01-14T17:15:41.870Z,1.60
2018-01-14T17:18:09.355Z,1.60
2018-01-14T17:20:36.844Z,1.60
2018-01-14T17:23:05.128Z,1.60
2018-01-14T17:25:33.376Z,1.60
2018-01-14T17:28:00.854Z,1.60
2018-01-14T17:30:29.146Z,1.60
2018-01-14T17:32:57.401Z,1.60
2018-01-14T17:35:25.733Z,1.60
2018-01-14T17:37:53.963Z,1.60
2018-01-14T17:40:22.205Z,1.60
2018-01-14T17:42:49.679Z,1.60
2018-01-14T17:45:17.156Z,1.60
2018-01-14T17:47:45.415Z,1.70
2018-01-14T17:50:12.923Z,1.60
2018-01-14T17:52:40.408Z,1.70
2018-01-14T17:55:07.897Z,1.70
2018-01-14T17:57:36.505Z,1.70
2018-01-14T18:00:04.043Z,1.60
2018-01-14T18:02:32.446Z,1.70
2018-01-14T18:04:59.953Z,1.60
2018-01-14T18:07:27.628Z,1.60
2018-01-14T18:09:55.206Z,1.60
2018-01-14T18:12:23.632Z,1.60
2018-01-14T18:14:51.156Z,1.60
2018-01-14T18:17:27.565Z,1.60
2018-01-14T18:19:55.077Z,1.60
2018-01-14T18:22:23.453Z,1.60
2018-01-14T18:24:51.740Z,1.60
2018-01-14T18:27:19.314Z,1.60
2018-01-14T18:29:46.827Z,1.60
2018-01-14T18:32:15.191Z,1.60
2018-01-14T18:34:42.601Z,1.60
2018-01-14T18:37:10.871Z,1.60
2018-01-14T18:39:39.144Z,1.60
2018-01-14T18:42:07.393Z,1.50
2018-01-14T18:44:34.920Z,1.50
2018-01-14T18:47:02.417Z,1.50
2018-01-14T18:49:29.918Z,1.50
2018-01-14T18:51:57.407Z,1.50
2018-01-14T18:54:24.922Z,1.50
2018-01-14T18:56:53.170Z,1.60
2018-01-14T18:59:20.664Z,1.60
2018-01-14T19:01:48.202Z,1.60
2018-01-14T19:04:16.514Z,1.60
2018-01-14T19:06:43.986Z,1.60
2018-01-14T19:09:11.477Z,1.60
2018-01-14T19:11:39.054Z,1.60
2018-01-14T19:14:07.297Z,1.60
2018-01-14T19:16:34.902Z,1.60
2018-01-14T19:19:03.164Z,1.60
2018-01-14T19:21:30.780Z,1.60
2018-01-14T19:23:58.279Z,1.60
2018-01-14T19:26:26.521Z,1.60
2018-01-14T19:28:54.014Z,1.60
2018-01-14T19:31:21.534Z,1.60
2018-01-14T19:33:49.793Z,1.60
2018-01-14T19:36:17.305Z,1.60
2018-01-14T19:38:44.827Z,1.60
2018-01-14T19:41:12.348Z,1.60
2018-01-14T19:43:39.939Z,1.60
2018-01-14T19:46:07.486Z,1.60
2018-01-14T19:48:34.973Z,1.60
2018-01-14T19:51:02.494Z,1.60
2018-01-14T19:53:30.021Z,1.60
2018-01-14T19:55:57.530Z,1.60
2018-01-14T19:58:25.018Z,1.60
2018-01-14T20:00:52.698Z,1.50
2018-01-14T20:03:20.182Z,1.50
2018-01-14T20:05:48.445Z,1.40
2018-01-14T20:08:16.699Z,1.40
2018-01-14T20:10:44.396Z,1.40
2018-01-14T20:13:12.716Z,1.40
2018-01-14T20:15:40.260Z,1.40
2018-01-14T20:18:07.747Z,1.30
2018-01-14T20:20:35.308Z,1.30
2018-01-14T20:23:02.816Z,1.40
2018-01-14T20:25:30.325Z,1.40
2018-01-14T20:27:57.811Z,1.30
2018-01-14T20:30:26.073Z,1.30
2018-01-14T20:32:53.565Z,1.30
2018-01-14T20:35:21.065Z,1.40
2018-01-14T20:37:48.583Z,1.40
2018-01-14T20:40:16.072Z,1.40
2018-01-14T20:42:43.589Z,1.40
2018-01-14T20:45:11.841Z,1.40
2018-01-14T20:47:39.323Z,1.40
2018-01-14T20:50:07.594Z,1.40
2018-01-14T20:52:36.740Z,1.30
2018-01-14T20:55:04.256Z,1.30
2018-01-14T20:57:32.596Z,1.30
2018-01-14T21:00:00.163Z,1.30
2018-01-14T21:02:28.482Z,1.30
2018-01-14T21:04:55.966Z,1.20
2018-01-14T21:07:23.484Z,1.20
2018-01-14T21:09:51.754Z,1.20
2018-01-14T21:12:20.020Z,1.20
2018-01-14T21:14:47.650Z,1.20
2018-01-14T21:17:15.178Z,1.20
2018-01-14T21:19:42.878Z,1.20
2018-01-14T21:22:10.474Z,1.20
2018-01-14T21:24:38.790Z,1.20
2018-01-14T21:27:06.279Z,1.20
2018-01-14T21:29:33.773Z,1.20
2018-01-14T21:32:02.057Z,1.10
2018-01-14T21:37:04.272Z,1.10
2018-01-14T21:39:31.757Z,1.10
2018-01-14T21:41:59.241Z,1.10
2018-01-14T21:44:27.545Z,1.20
2018-01-14T21:46:55.804Z,1.20
2018-01-14T21:49:24.068Z,1.20
2018-01-14T21:51:53.087Z,1.20
2018-01-14T21:54:21.339Z,1.20
2018-01-14T21:56:48.808Z,1.10
2018-01-14T21:59:17.087Z,1.20
2018-01-14T22:01:45.352Z,1.20
2018-01-14T22:04:13.104Z,1.20
2018-01-14T22:06:40.610Z,1.20
2018-01-14T22:09:08.192Z,1.20
2018-01-14T22:11:35.702Z,1.20
2018-01-14T22:14:03.958Z,1.20
2018-01-14T22:16:32.213Z,1.20
2018-01-14T22:18:59.963Z,1.20
2018-01-14T22:21:27.480Z,1.20
2018-01-14T22:23:55.737Z,1.10
2018-01-14T22:26:23.210Z,1.10
2018-01-14T22:28:51.022Z,1.10
2018-01-14T22:31:18.506Z,1.10
2018-01-14T22:33:45.973Z,1.10
2018-01-14T22:36:13.467Z,1.10
2018-01-14T22:38:41.717Z,1.10
2018-01-14T22:41:09.215Z,1.10
2018-01-14T22:43:36.751Z,1.10
2018-01-14T22:46:04.989Z,1.00
2018-01-14T22:48:32.473Z,1.00
2018-01-14T22:51:00.740Z,1.00
2018-01-14T22:53:29.755Z,1.00
2018-01-14T22:55:58.001Z,1.10
2018-01-14T22:58:25.493Z,1.00
2018-01-14T23:00:53.736Z,1.00
2018-01-14T23:03:21.327Z,1.00
2018-01-14T23:05:48.824Z,1.00
2018-01-14T23:08:16.454Z,1.10
2018-01-14T23:10:44.690Z,1.10
2018-01-14T23:13:12.178Z,1.10
2018-01-14T23:15:40.450Z,1.10
2018-01-14T23:18:07.924Z,1.10
2018-01-14T23:20:36.192Z,1.00
2018-01-14T23:23:04.446Z,1.00
2018-01-14T23:25:33.422Z,1.00
2018-01-14T23:28:00.914Z,1.00
2018-01-14T23:30:29.190Z,1.00
2018-01-14T23:32:57.442Z,1.00
2018-01-14T23:35:24.962Z,1.00
2018-01-14T23:37:52.486Z,1.00
2018-01-14T23:40:20.727Z,1.00
2018-01-14T23:42:48.237Z,1.00
2018-01-14T23:45:16.475Z,1.00
2018-01-14T23:47:43.961Z,1.00
2018-01-14T23:50:12.232Z,1.00
2018-01-14T23:52:40.476Z,1.00
2018-01-14T23:55:07.955Z,1.00
2018-01-14T23:57:36.848Z,1.00
